Time;durP1;ratioP1;P1;durP2;ratioP2;P2;SDS_P1;SDS_P2;PMS_P1;PMS_P2;Temp;Humidity;BMP_temperature;BMP_pressure;BME280_temperature;BME280_humidity;BME280_pressure;Samples;Min_cycle;Max_cycle;Signal;HPM_P1;HPM_P2
2022/07/03 00:02:13;;;;;;;14.50;8.20;;;;;;;20.13;60.53;99519.38;105756;1278;108413;-65
2022/07/03 00:04:42;;;;;;;15.20;8.50;;;;;;;20.13;60.43;99520.10;105914;1278;98581;-66
2022/07/03 00:07:17;;;;;;;16.80;9.20;;;;;;;20.11;60.62;99520.96;105927;1279;97891;-64
2022/07/03 00:09:45;;;;;;;15.50;8.70;;;;;;;20.09;60.60;99523.88;105906;1279;112016;-67
2022/07/03 00:12:16;;;;;;;19.00;8.90;;;;;;;20.07;60.70;99520.61;105834;1278;98000;-65
2022/07/03 00:14:46;;;;;;;14.70;8.80;;;;;;;20.06;60.71;99518.20;105803;1279;108962;-67
2022/07/03 00:17:14;;;;;;;16.10;8.60;;;;;;;20.05;60.77;99514.35;105840;1279;98954;-66
2022/07/03 00:19:42;;;;;;;19.20;9.00;;;;;;;20.05;60.79;99513.23;105867;1278;98011;-64
2022/07/03 00:22:14;;;;;;;18.90;9.70;;;;;;;20.04;60.73;99513.73;105830;1277;110993;-65
2022/07/03 00:25:02;;;;;;;17.40;9.10;;;;;;;20.03;60.80;99515.66;105887;1278;97987;-66
2022/07/03 00:27:35;;;;;;;20.10;9.40;;;;;;;20.01;60.95;99518.05;105972;1278;108113;-65
2022/07/03 00:30:07;;;;;;;18.50;9.30;;;;;;;19.99;60.92;99520.41;105903;1278;98008;-65
2022/07/03 00:32:42;;;;;;;16.90;9.10;;;;;;;19.98;60.95;99524.52;105856;1279;97879;-66
2022/07/03 00:35:17;;;;;;;15.80;9.50;;;;;;;19.97;60.95;99523.70;105732;1279;111751;-65
2022/07/03 00:37:48;;;;;;;18.20;9.30;;;;;;;19.94;61.08;99531.33;105896;1277;98009;-64
2022/07/03 00:40:16;;;;;;;18.70;10.00;;;;;;;19.93;60.97;99529.66;105835;1277;108299;-65
2022/07/03 00:42:51;;;;;;;18.10;10.50;;;;;;;19.91;61.06;99526.11;105835;1277;95287;-65
2022/07/03 00:45:25;;;;;;;18.20;10.00;;;;;;;19.89;61.05;99526.50;105915;1279;97854;-64
2022/07/03 00:47:57;;;;;;;18.50;10.20;;;;;;;19.86;61.00;99528.95;105887;1277;113495;-65
2022/07/03 00:50:34;;;;;;;18.60;10.10;;;;;;;19.84;61.13;99527.36;105896;1277;95214;-68
2022/07/03 00:53:06;;;;;;;18.80;9.90;;;;;;;19.82;61.18;99521.06;105949;1278;107876;-65
2022/07/03 00:55:40;;;;;;;17.70;9.90;;;;;;;19.81;61.21;99514.88;105861;1277;97991;-64
2022/07/03 00:58:14;;;;;;;17.80;9.90;;;;;;;19.81;61.35;99513.09;105865;1277;95173;-65
2022/07/03 01:00:45;;;;;;;18.00;10.20;;;;;;;19.80;61.26;99510.52;105830;1277;111391;-64
2022/07/03 01:03:28;;;;;;;19.20;10.10;;;;;;;19.79;61.33;99508.63;105829;1277;97868;-64
2022/07/03 01:06:07;;;;;;;18.00;9.40;;;;;;;19.77;61.37;99507.68;105835;1279;107357;-65
2022/07/03 01:08:45;;;;;;;18.70;9.40;;;;;;;19.74;61.43;99506.59;107673;1277;95890;-65
2022/07/03 01:11:36;;;;;;;16.00;8.90;;;;;;;19.73;61.47;99503.83;106315;1277;95873;-65
2022/07/03 01:14:35;;;;;;;17.70;8.10;;;;;;;19.73;61.39;99500.81;105900;1279;112000;-66
2022/07/03 01:17:31;;;;;;;17.10;9.10;;;;;;;19.71;61.57;99500.44;105999;1279;96566;-66
2022/07/03 01:20:07;;;;;;;20.40;10.50;;;;;;;19.69;61.51;99498.46;105871;1279;107720;-64
2022/07/03 01:22:56;;;;;;;16.80;9.10;;;;;;;19.68;61.57;99495.76;105828;1277;95260;-65
2022/07/03 01:25:37;;;;;;;17.00;9.00;;;;;;;19.66;61.66;99493.59;105880;1279;97861;-65
2022/07/03 01:28:13;;;;;;;22.50;13.20;;;;;;;19.65;61.73;99492.56;105921;1278;112074;-66
2022/07/03 01:30:46;;;;;;;23.90;15.80;;;;;;;19.65;61.66;99491.38;105859;1277;97811;-65
2022/07/03 01:33:22;;;;;;;20.90;12.60;;;;;;;19.63;61.74;99487.56;105843;1278;108374;-65
2022/07/03 01:36:15;;;;;;;20.40;9.70;;;;;;;19.62;61.79;99490.05;105840;1278;97880;-63
2022/07/03 01:38:45;;;;;;;17.20;9.10;;;;;;;19.61;61.81;99495.14;105900;1279;97999;-62
2022/07/03 01:41:13;;;;;;;18.50;9.20;;;;;;;19.60;61.87;99490.95;105850;1278;111683;-65
2022/07/03 01:43:49;;;;;;;19.10;9.40;;;;;;;19.60;61.88;99492.23;105914;1278;97984;-66
2022/07/03 01:46:27;;;;;;;18.80;10.00;;;;;;;19.59;61.91;99488.19;105898;1279;108715;-65
2022/07/03 01:48:57;;;;;;;17.30;9.50;;;;;;;19.58;61.94;99492.19;105923;1278;97963;-65
2022/07/03 01:51:29;;;;;;;17.90;10.40;;;;;;;19.58;62.08;99488.23;105951;1277;97855;-65
2022/07/03 01:54:01;;;;;;;16.70;9.00;;;;;;;19.59;61.95;99486.56;105936;1277;111401;-64
2022/07/03 01:56:35;;;;;;;20.60;12.20;;;;;;;19.58;62.06;99487.54;105939;1279;97963;-65
2022/07/03 01:59:03;;;;;;;21.00;12.10;;;;;;;19.57;62.03;99488.34;105922;1277;107859;-65
2022/07/03 02:01:41;;;;;;;22.40;13.00;;;;;;;19.56;62.05;99490.50;106009;1277;97892;-67
2022/07/03 02:04:31;;;;;;;17.60;10.10;;;;;;;19.55;62.18;99488.64;106021;1277;98597;-65
2022/07/03 02:07:15;;;;;;;17.30;9.70;;;;;;;19.54;62.27;99489.82;105950;1278;111487;-64
2022/07/03 02:10:05;;;;;;;18.20;9.80;;;;;;;19.53;62.25;99485.39;105836;1277;97956;-64
2022/07/03 02:13:10;;;;;;;18.30;9.80;;;;;;;19.53;62.32;99483.23;105986;1279;107781;-67
2022/07/03 02:15:52;;;;;;;17.70;9.90;;;;;;;19.51;62.26;99482.20;105893;1279;97872;-65
2022/07/03 02:18:27;;;;;;;17.20;9.40;;;;;;;19.49;62.29;99479.48;105937;1279;97995;-65
2022/07/03 02:21:12;;;;;;;16.60;9.50;;;;;;;19.49;62.41;99476.77;105934;1277;111752;-65
2022/07/03 02:24:21;;;;;;;18.70;9.50;;;;;;;19.48;62.44;99476.86;105872;1277;97834;-65
2022/07/03 02:27:05;;;;;;;23.80;14.30;;;;;;;19.48;62.50;99476.86;105871;1279;108379;-65
2022/07/03 02:29:57;;;;;;;20.00;10.70;;;;;;;19.47;62.49;99479.35;105915;1279;95400;-65
2022/07/03 02:32:30;;;;;;;18.30;9.60;;;;;;;19.46;62.48;99483.21;105910;1277;97962;-65
2022/07/03 02:35:05;;;;;;;18.00;9.70;;;;;;;19.43;62.51;99481.73;105994;1279;111378;-65
2022/07/03 02:37:47;;;;;;;18.90;10.20;;;;;;;19.41;62.59;99488.91;105903;1279;98006;-65
2022/07/03 02:40:54;;;;;;;18.40;9.90;;;;;;;19.41;62.65;99483.93;105875;1279;107921;-65
2022/07/03 02:43:59;;;;;;;18.50;10.00;;;;;;;19.40;62.65;99483.98;105958;1279;97910;-65
2022/07/03 02:47:03;;;;;;;18.50;9.40;;;;;;;19.39;62.70;99486.16;106026;1278;97977;-65
2022/07/03 02:49:53;;;;;;;17.70;10.10;;;;;;;19.37;62.73;99482.69;106014;1279;111991;-65
2022/07/03 02:52:31;;;;;;;17.20;9.70;;;;;;;19.38;62.77;99483.00;105919;1279;97892;-64
2022/07/03 02:55:08;;;;;;;18.60;10.30;;;;;;;19.38;62.82;99488.02;105825;1278;108311;-64
2022/07/03 02:57:43;;;;;;;19.00;10.20;;;;;;;19.37;62.76;99486.64;105873;1278;98558;-64
2022/07/03 03:00:15;;;;;;;18.00;10.40;;;;;;;19.35;62.86;99483.98;105839;1277;95233;-65
2022/07/03 03:02:49;;;;;;;20.30;10.60;;;;;;;19.35;62.94;99486.02;105958;1277;111290;-65
2022/07/03 03:05:30;;;;;;;20.70;11.00;;;;;;;19.33;62.95;99484.02;105986;1279;99256;-65
2022/07/03 03:08:27;;;;;;;18.10;9.60;;;;;;;19.31;62.98;99482.75;105988;1279;107817;-64
2022/07/03 03:11:08;;;;;;;22.50;10.50;;;;;;;19.30;63.06;99479.10;105886;1277;97988;-66
2022/07/03 03:13:39;;;;;;;18.30;9.70;;;;;;;19.30;63.11;99474.11;105854;1279;97928;-64
2022/07/03 03:16:14;;;;;;;18.40;10.00;;;;;;;19.31;63.13;99473.64;105902;1279;111934;-64
2022/07/03 03:18:44;;;;;;;19.50;10.80;;;;;;;19.31;63.16;99475.64;105904;1279;97392;-63
2022/07/03 03:21:19;;;;;;;20.40;11.40;;;;;;;19.31;63.15;99471.13;105926;1279;108269;-64
2022/07/03 03:23:54;;;;;;;19.00;10.20;;;;;;;19.32;63.21;99474.63;105918;1279;97989;-64
2022/07/03 03:26:31;;;;;;;18.30;9.80;;;;;;;19.32;63.23;99471.13;106002;1279;95284;-64
2022/07/03 03:29:02;;;;;;;21.50;10.50;;;;;;;19.33;63.35;99466.89;105858;1278;112102;-64
2022/07/03 03:31:32;;;;;;;18.00;10.20;;;;;;;19.34;63.31;99467.75;105840;1279;97733;-65
2022/07/03 03:34:04;;;;;;;19.20;10.30;;;;;;;19.36;63.32;99469.36;105906;1279;108398;-66
2022/07/03 03:36:35;;;;;;;19.60;10.30;;;;;;;19.37;63.40;99466.91;105873;1279;97785;-64
2022/07/03 03:39:03;;;;;;;21.40;10.60;;;;;;;19.38;63.36;99472.54;105855;1278;96995;-65
2022/07/03 03:41:37;;;;;;;16.00;9.60;;;;;;;19.39;63.39;99467.60;105856;1279;112009;-65
2022/07/03 03:44:05;;;;;;;20.80;10.20;;;;;;;19.40;63.49;99466.93;105869;1279;97887;-67
2022/07/03 03:46:36;;;;;;;18.90;9.90;;;;;;;19.41;63.49;99469.70;103587;1279;3071839;-66
2022/07/03 03:49:06;;;;;;;17.80;10.30;;;;;;;19.43;63.55;99471.35;105834;1278;97844;-65
2022/07/03 03:51:40;;;;;;;17.00;9.70;;;;;;;19.43;63.52;99468.02;105864;1277;97925;-66
2022/07/03 03:54:08;;;;;;;17.30;9.80;;;;;;;19.45;63.55;99468.04;105868;1278;111001;-64
2022/07/03 03:56:38;;;;;;;18.70;10.40;;;;;;;19.47;63.60;99471.09;105850;1278;95275;-65
2022/07/03 03:59:06;;;;;;;19.60;10.70;;;;;;;19.48;63.67;99471.31;105839;1278;108131;-65
2022/07/03 04:01:36;;;;;;;19.50;10.50;;;;;;;19.48;63.66;99471.11;105922;1278;97912;-64
2022/07/03 04:04:12;;;;;;;18.80;9.40;;;;;;;19.50;63.77;99470.60;105889;1277;97879;-63
2022/07/03 04:06:40;;;;;;;18.90;10.00;;;;;;;19.52;63.76;99469.13;105886;1279;111356;-64
2022/07/03 04:09:10;;;;;;;20.30;10.50;;;;;;;19.53;63.79;99466.14;105788;1279;97651;-63
2022/07/03 04:11:40;;;;;;;20.00;9.90;;;;;;;19.55;63.76;99469.79;106001;1277;108371;-66
2022/07/03 04:14:08;;;;;;;17.60;10.00;;;;;;;19.56;63.81;99468.04;105833;1277;97854;-65
2022/07/03 04:16:36;;;;;;;17.00;9.50;;;;;;;19.56;63.78;99469.41;105844;1277;97948;-64
2022/07/03 04:19:04;;;;;;;18.00;9.50;;;;;;;19.57;63.79;99467.71;105863;1277;111045;-68
2022/07/03 04:21:32;;;;;;;17.80;9.40;;;;;;;19.57;63.85;99464.60;105888;1278;95378;-66
2022/07/03 04:24:03;;;;;;;18.30;9.60;;;;;;;19.57;63.88;99464.96;105906;1277;108382;-63
2022/07/03 04:26:31;;;;;;;17.90;9.10;;;;;;;19.57;63.81;99461.46;105907;1277;96559;-65
2022/07/03 04:29:02;;;;;;;19.00;9.90;;;;;;;19.58;63.92;99462.44;105988;1278;95621;-62
2022/07/03 04:31:29;;;;;;;19.90;8.90;;;;;;;19.59;63.97;99460.52;105933;1277;111850;-62
2022/07/03 04:34:00;;;;;;;17.90;8.90;;;;;;;19.60;63.97;99459.48;105922;1277;97861;-63
2022/07/03 04:36:31;;;;;;;17.80;8.60;;;;;;;19.62;64.00;99462.84;105870;1277;108763;-64
2022/07/03 04:38:58;;;;;;;21.80;9.20;;;;;;;19.64;64.02;99464.84;105841;1279;95296;-66
2022/07/03 04:41:26;;;;;;;16.00;9.00;;;;;;;19.65;63.99;99464.95;105886;1279;97891;-64
2022/07/03 04:43:57;;;;;;;16.20;8.60;;;;;;;19.65;64.01;99463.42;105923;1277;112002;-64
2022/07/03 04:46:24;;;;;;;17.10;8.70;;;;;;;19.68;64.17;99461.48;105876;1278;96322;-64
2022/07/03 04:48:55;;;;;;;17.10;9.00;;;;;;;19.72;64.04;99461.14;105945;1278;107583;-65
2022/07/03 04:51:23;;;;;;;18.30;8.70;;;;;;;19.74;64.11;99466.82;105866;1278;97976;-66
2022/07/03 04:53:54;;;;;;;18.20;9.10;;;;;;;19.76;64.18;99461.43;105771;1279;97970;-66
2022/07/03 04:56:25;;;;;;;15.60;8.10;;;;;;;19.78;64.20;99460.98;105956;1278;111350;-64
2022/07/03 04:58:56;;;;;;;18.40;9.40;;;;;;;19.81;64.20;99456.44;105942;1278;97912;-66
2022/07/03 05:01:23;;;;;;;18.30;9.20;;;;;;;19.83;64.15;99457.14;105851;1278;109102;-65
2022/07/03 05:03:54;;;;;;;18.90;9.40;;;;;;;19.85;64.27;99455.83;105938;1278;98688;-65
2022/07/03 05:06:22;;;;;;;18.70;9.60;;;;;;;19.88;64.32;99456.42;105907;1278;96363;-65
2022/07/03 05:08:50;;;;;;;17.90;9.40;;;;;;;19.92;64.35;99453.08;105904;1279;112813;-66
2022/07/03 05:11:20;;;;;;;17.20;9.20;;;;;;;19.97;64.30;99449.55;105860;1278;97726;-66
2022/07/03 05:13:48;;;;;;;20.80;10.80;;;;;;;20.01;64.30;99448.02;105901;1278;108454;-67
2022/07/03 05:16:15;;;;;;;18.50;9.50;;;;;;;20.05;64.19;99447.63;105959;1278;97857;-66
2022/07/03 05:18:46;;;;;;;18.30;9.50;;;;;;;20.08;64.35;99445.81;105990;1277;97931;-65
2022/07/03 05:21:15;;;;;;;19.90;9.20;;;;;;;20.14;64.27;99446.27;105927;1278;112024;-65
2022/07/03 05:23:48;;;;;;;17.60;9.20;;;;;;;20.20;64.34;99443.39;105984;1279;95286;-65
2022/07/03 05:26:16;;;;;;;17.40;9.90;;;;;;;20.26;64.27;99443.83;105941;1280;108584;-65
2022/07/03 05:28:46;;;;;;;16.50;9.20;;;;;;;20.30;64.32;99448.17;105911;1279;98017;-69
2022/07/03 05:31:15;;;;;;;18.00;9.00;;;;;;;20.34;64.20;99451.89;105925;1279;95263;-66
2022/07/03 05:33:44;;;;;;;17.70;9.10;;;;;;;20.36;64.21;99455.61;105848;1278;112025;-66
2022/07/03 05:36:14;;;;;;;19.00;9.40;;;;;;;20.40;64.25;99459.42;106000;1278;97893;-65
2022/07/03 05:41:30;;;;;;;15.50;8.60;;;;;;;20.46;64.26;99466.16;105983;1278;95185;-65
2022/07/03 05:43:58;;;;;;;17.60;8.70;;;;;;;20.49;64.25;99466.54;105927;1278;95196;-64
2022/07/03 05:46:26;;;;;;;16.70;9.00;;;;;;;20.53;64.02;99465.05;105931;1277;111691;-64
2022/07/03 05:48:56;;;;;;;18.20;9.00;;;;;;;20.53;64.00;99471.68;105943;1279;97977;-64
2022/07/03 05:51:26;;;;;;;15.50;8.70;;;;;;;20.54;64.01;99476.85;105913;1279;108353;-66
2022/07/03 05:53:56;;;;;;;17.00;9.00;;;;;;;20.50;64.12;99471.81;105874;1278;97981;-66
2022/07/03 05:56:26;;;;;;;18.10;9.40;;;;;;;20.48;64.11;99468.40;105938;1278;95273;-66
2022/07/03 05:58:54;;;;;;;17.90;9.00;;;;;;;20.49;64.12;99471.60;105883;1278;111574;-64
2022/07/03 06:01:23;;;;;;;15.00;8.10;;;;;;;20.51;64.10;99465.06;105790;1279;97913;-66
2022/07/03 06:03:54;;;;;;;19.70;9.00;;;;;;;20.53;64.07;99461.08;105800;1279;107642;-69
2022/07/03 06:06:22;;;;;;;21.20;9.90;;;;;;;20.56;64.04;99457.33;105868;1279;97961;-70
2022/07/03 06:08:53;;;;;;;16.60;9.00;;;;;;;20.61;64.18;99457.16;105866;1279;97884;-70
2022/07/03 06:11:23;;;;;;;14.80;8.20;;;;;;;20.68;64.07;99456.22;105838;1279;112034;-71
2022/07/03 06:13:51;;;;;;;15.50;8.20;;;;;;;20.74;64.00;99458.02;105849;1279;97852;-71
2022/07/03 06:16:18;;;;;;;16.00;9.00;;;;;;;20.81;64.07;99462.14;105841;1280;107738;-70
2022/07/03 06:18:47;;;;;;;17.10;9.30;;;;;;;20.88;64.09;99460.22;105836;1278;96355;-70
2022/07/03 06:21:16;;;;;;;14.90;8.50;;;;;;;20.95;64.06;99455.08;105906;1280;97859;-71
2022/07/03 06:23:44;;;;;;;15.60;8.50;;;;;;;21.03;64.01;99452.63;105878;1279;110459;-71
2022/07/03 06:26:17;;;;;;;15.40;8.20;;;;;;;21.11;63.99;99451.35;105966;1278;97863;-71
2022/07/03 06:28:45;;;;;;;15.50;7.90;;;;;;;21.20;63.96;99449.10;105829;1279;107736;-68
2022/07/03 06:31:13;;;;;;;14.00;7.50;;;;;;;21.31;64.03;99449.55;105897;1280;97959;-69
2022/07/03 06:33:40;;;;;;;15.20;8.40;;;;;;;21.39;63.80;99443.56;105910;1279;97925;-70
2022/07/03 06:36:08;;;;;;;12.70;7.40;;;;;;;21.49;63.68;99447.45;105866;1278;111385;-70
2022/07/03 06:38:39;;;;;;;17.20;8.30;;;;;;;21.60;63.85;99452.20;105919;1280;96571;-69
2022/07/03 06:41:07;;;;;;;18.90;9.50;;;;;;;21.67;63.92;99449.48;105805;1279;107793;-77
2022/07/03 06:43:35;;;;;;;17.80;9.20;;;;;;;21.74;63.69;99448.02;105804;1278;96595;-77
2022/07/03 06:46:02;;;;;;;16.50;8.20;;;;;;;21.78;63.72;99450.48;105826;1279;96342;-76
2022/07/03 06:48:30;;;;;;;12.10;6.50;;;;;;;21.80;63.45;99451.98;105911;1279;111454;-76
2022/07/03 06:50:58;;;;;;;13.00;7.60;;;;;;;21.83;63.58;99448.16;105888;1279;98015;-72
2022/07/03 06:53:26;;;;;;;15.50;7.50;;;;;;;21.88;63.50;99445.34;105800;1278;107042;-75
2022/07/03 06:55:54;;;;;;;14.90;7.30;;;;;;;21.90;63.58;99446.31;105802;1279;98033;-73
2022/07/03 06:58:22;;;;;;;13.10;6.80;;;;;;;21.95;63.40;99447.41;105951;1278;98464;-73
2022/07/03 07:00:49;;;;;;;13.90;7.50;;;;;;;22.00;63.52;99441.52;105827;1277;111396;-70
2022/07/03 07:03:17;;;;;;;12.50;7.10;;;;;;;22.11;63.50;99440.91;105818;1280;97827;-73
2022/07/03 07:05:45;;;;;;;14.30;7.40;;;;;;;22.30;63.40;99436.23;105769;1277;107807;-70
2022/07/03 07:08:13;;;;;;;10.80;6.30;;;;;;;22.51;63.40;99437.60;105711;1278;97991;-72
2022/07/03 07:10:43;;;;;;;12.20;7.10;;;;;;;22.64;63.20;99432.92;105842;1277;97771;-74
2022/07/03 07:13:11;;;;;;;13.60;7.00;;;;;;;22.78;63.40;99424.65;105831;1277;111484;-75
2022/07/03 07:15:39;;;;;;;13.40;7.70;;;;;;;22.87;63.16;99420.09;105773;1278;98000;-75
2022/07/03 07:18:06;;;;;;;11.80;6.40;;;;;;;23.02;63.06;99410.84;105838;1277;108353;-75
2022/07/03 07:20:34;;;;;;;12.80;6.60;;;;;;;23.29;62.84;99406.27;105831;1277;97881;-72
2022/07/03 07:23:03;;;;;;;11.60;5.90;;;;;;;23.88;62.33;99407.06;105867;1277;95922;-77
2022/07/03 07:25:30;;;;;;;11.60;5.90;;;;;;;24.27;62.35;99410.88;105922;1279;111496;-77
2022/07/03 07:27:58;;;;;;;9.20;5.20;;;;;;;24.35;62.38;99408.99;105930;1279;97610;-77
2022/07/03 07:30:26;;;;;;;8.70;5.40;;;;;;;24.40;62.51;99403.98;105947;1278;105993;-69
2022/07/03 07:32:54;;;;;;;9.80;5.30;;;;;;;24.48;62.34;99406.56;105973;1277;97985;-74
2022/07/03 07:35:21;;;;;;;11.30;5.70;;;;;;;24.47;62.12;99405.77;105960;1277;97870;-79
2022/07/03 07:37:49;;;;;;;10.70;5.60;;;;;;;24.47;62.13;99404.73;107613;1276;111427;-72
2022/07/03 07:40:17;;;;;;;9.70;5.20;;;;;;;24.50;62.01;99403.11;107723;1276;96191;-75
2022/07/03 07:42:45;;;;;;;10.00;5.40;;;;;;;24.48;61.78;99402.42;107658;1277;108451;-80
2022/07/03 07:45:15;;;;;;;11.10;5.60;;;;;;;24.45;61.77;99397.71;107011;1277;95720;-77
2022/07/03 07:47:43;;;;;;;9.30;5.30;;;;;;;24.46;61.74;99396.73;105784;1277;98050;-72
2022/07/03 07:50:12;;;;;;;11.80;6.00;;;;;;;24.46;61.59;99394.17;105679;1279;111416;-67
2022/07/03 07:52:44;;;;;;;9.90;5.50;;;;;;;24.46;61.31;99391.61;106000;1277;97817;-69
2022/07/03 07:55:13;;;;;;;10.40;5.80;;;;;;;24.45;61.23;99391.99;105886;1279;108327;-70
2022/07/03 07:57:47;;;;;;;12.90;5.90;;;;;;;24.41;61.08;99392.61;105942;1277;97756;-69
2022/07/03 08:00:18;;;;;;;11.30;5.50;;;;;;;24.34;60.85;99393.92;105957;1277;98018;-70
2022/07/03 08:05:35;;;;;;;11.20;6.00;;;;;;;24.28;60.69;99397.66;105933;1277;95504;-71
2022/07/03 08:08:10;;;;;;;11.00;5.30;;;;;;;24.25;60.62;99395.70;105939;1277;107837;-71
2022/07/03 08:10:56;;;;;;;8.80;5.00;;;;;;;24.18;60.29;99392.13;105995;1277;97870;-70
2022/07/03 08:13:24;;;;;;;9.30;4.60;;;;;;;24.11;60.21;99394.77;105932;1277;96400;-70
2022/07/03 08:15:55;;;;;;;10.10;5.00;;;;;;;24.14;60.05;99394.05;105948;1277;111058;-69
2022/07/03 08:18:22;;;;;;;9.30;4.60;;;;;;;24.24;59.79;99397.66;105869;1277;97976;-69
2022/07/03 08:20:50;;;;;;;10.20;4.20;;;;;;;24.28;59.83;99399.30;105949;1277;106735;-71
2022/07/03 08:23:18;;;;;;;7.60;4.30;;;;;;;24.36;59.55;99397.24;105887;1279;97883;-70
2022/07/03 08:25:46;;;;;;;8.90;4.40;;;;;;;24.81;59.18;99395.08;105852;1278;97977;-69
2022/07/03 08:28:14;;;;;;;8.40;3.80;;;;;;;25.59;58.47;99395.14;105825;1278;111510;-70
2022/07/03 08:30:42;;;;;;;8.10;3.80;;;;;;;26.60;57.96;99388.08;105900;1277;98199;-69
2022/07/03 08:33:13;;;;;;;8.10;4.50;;;;;;;27.56;57.95;99384.80;105921;1277;108381;-69
2022/07/03 08:35:40;;;;;;;4.10;3.10;;;;;;;28.48;57.67;99385.86;105966;1277;97909;-69
2022/07/03 08:38:10;;;;;;;5.80;3.30;;;;;;;29.17;57.79;99386.23;105838;1277;97754;-70
2022/07/03 08:40:43;;;;;;;8.80;3.30;;;;;;;29.95;57.37;99383.55;105823;1278;112778;-69
2022/07/03 08:43:15;;;;;;;6.20;3.10;;;;;;;30.53;57.26;99385.27;105818;1280;98351;-69
2022/07/03 08:45:45;;;;;;;6.80;3.40;;;;;;;30.70;57.25;99382.35;105883;1277;108178;-70
2022/07/03 08:48:18;;;;;;;6.50;4.00;;;;;;;30.69;57.23;99381.99;105899;1277;97881;-70
2022/07/03 08:50:50;;;;;;;7.30;4.20;;;;;;;30.66;56.70;99381.92;105827;1277;97987;-67
2022/07/03 08:53:20;;;;;;;8.80;3.70;;;;;;;30.45;56.46;99382.05;105799;1280;111948;-68
2022/07/03 08:55:51;;;;;;;7.00;4.20;;;;;;;30.16;56.42;99380.41;105972;1277;96353;-69
2022/07/03 08:58:23;;;;;;;10.80;4.60;;;;;;;29.85;55.97;99380.17;105898;1277;107832;-69
2022/07/03 09:00:54;;;;;;;7.60;3.60;;;;;;;29.54;55.59;99380.84;105833;1279;97996;-69
2022/07/03 09:03:24;;;;;;;6.20;3.80;;;;;;;29.21;55.39;99379.28;105790;1279;97935;-68
2022/07/03 09:05:56;;;;;;;8.10;3.80;;;;;;;28.97;54.81;99374.00;105851;1278;111343;-69
2022/07/03 09:08:31;;;;;;;8.60;4.30;;;;;;;28.73;54.65;99378.16;105849;1279;95676;-68
2022/07/03 09:11:06;;;;;;;6.40;4.00;;;;;;;28.55;54.39;99374.70;105797;1278;108749;-67
2022/07/03 09:13:34;;;;;;;10.60;4.00;;;;;;;28.39;53.94;99373.23;105790;1278;96302;-70
2022/07/03 09:16:03;;;;;;;6.50;4.00;;;;;;;28.35;53.91;99366.32;105862;1277;97396;-69
2022/07/03 09:18:41;;;;;;;5.70;4.10;;;;;;;28.46;53.47;99364.52;105802;1279;111975;-70
2022/07/03 09:21:10;;;;;;;10.30;4.50;;;;;;;28.42;53.29;99368.53;105773;1280;97968;-70
2022/07/03 09:23:42;;;;;;;8.50;4.00;;;;;;;28.35;53.06;99365.17;105955;1277;108257;-68
2022/07/03 09:26:19;;;;;;;9.20;4.10;;;;;;;28.13;52.80;99362.70;105918;1278;95375;-73
2022/07/03 09:28:52;;;;;;;8.70;4.30;;;;;;;27.89;52.36;99357.94;105967;1277;98687;-68
2022/07/03 09:31:26;;;;;;;7.10;4.00;;;;;;;27.76;52.04;99359.85;105807;1277;111571;-68
2022/07/03 09:34:07;;;;;;;5.50;3.90;;;;;;;27.70;52.31;99360.19;105929;1277;95509;-69
2022/07/03 09:36:50;;;;;;;7.80;4.20;;;;;;;27.71;51.75;99362.28;105793;1278;108382;-70
2022/07/03 09:39:36;;;;;;;7.80;4.10;;;;;;;27.87;51.78;99357.54;105784;1278;97927;-69
2022/07/03 09:42:11;;;;;;;5.70;3.90;;;;;;;27.96;51.48;99349.66;105806;1279;97867;-69
2022/07/03 09:44:47;;;;;;;6.10;3.60;;;;;;;28.09;51.39;99348.45;105763;1279;111725;-70
2022/07/03 09:47:23;;;;;;;7.70;4.40;;;;;;;27.99;51.31;99345.36;105872;1280;97896;-68
2022/07/03 09:50:02;;;;;;;7.50;4.00;;;;;;;27.74;50.70;99340.05;105804;1279;107341;-69
2022/07/03 09:52:37;;;;;;;9.60;4.30;;;;;;;27.58;50.67;99335.67;105839;1279;97967;-69
2022/07/03 09:55:08;;;;;;;6.40;3.80;;;;;;;27.77;50.91;99332.77;106038;1278;97891;-70
2022/07/03 09:57:52;;;;;;;5.30;3.80;;;;;;;28.07;50.75;99329.04;105966;1277;111907;-70
2022/07/03 10:00:24;;;;;;;7.60;3.90;;;;;;;28.33;50.25;99327.83;105950;1278;98179;-69
2022/07/03 10:03:08;;;;;;;8.20;3.80;;;;;;;28.54;50.43;99326.95;105873;1278;107445;-68
2022/07/03 10:05:42;;;;;;;7.30;3.70;;;;;;;28.81;50.35;99327.77;105873;1278;95237;-69
2022/07/03 10:08:12;;;;;;;7.00;3.70;;;;;;;28.65;49.29;99321.72;105869;1277;95241;-68
2022/07/03 10:10:48;;;;;;;5.80;3.90;;;;;;;28.29;49.08;99324.11;105831;1278;111499;-73
2022/07/03 10:13:17;;;;;;;4.70;3.70;;;;;;;28.36;49.22;99326.38;105793;1280;98298;-70
2022/07/03 10:15:45;;;;;;;6.90;4.00;;;;;;;28.44;49.29;99324.70;105873;1278;106574;-69
2022/07/03 10:18:24;;;;;;;8.20;4.90;;;;;;;28.45;48.93;99320.70;105907;1277;97983;-71
2022/07/03 10:20:58;;;;;;;8.20;4.50;;;;;;;28.53;48.88;99321.56;105874;1278;97904;-69
2022/07/03 10:23:27;;;;;;;8.00;3.80;;;;;;;28.59;48.71;99316.38;105873;1278;111414;-70
2022/07/03 10:25:59;;;;;;;5.70;3.90;;;;;;;28.50;48.44;99314.85;105972;1279;95631;-71
2022/07/03 10:28:27;;;;;;;5.70;3.40;;;;;;;28.32;48.32;99317.98;105875;1278;108996;-71
2022/07/03 10:30:55;;;;;;;6.50;3.80;;;;;;;28.32;48.20;99317.15;105922;1277;97992;-75
2022/07/03 10:33:28;;;;;;;8.50;3.90;;;;;;;28.33;48.16;99316.80;105943;1278;97889;-71
2022/07/03 10:36:00;;;;;;;6.60;3.90;;;;;;;28.28;47.86;99316.47;105834;1278;109999;-73
2022/07/03 10:38:48;;;;;;;8.00;4.10;;;;;;;28.23;47.60;99314.73;105877;1277;97748;-71
2022/07/03 10:47:26;;;;;;;8.50;3.90;;;;;;;28.03;47.35;99299.23;105992;1277;97947;-71
2022/07/03 10:50:02;;;;;;;9.10;4.10;;;;;;;28.02;47.51;99294.41;105975;1277;110567;-70
2022/07/03 10:52:32;;;;;;;6.20;3.80;;;;;;;27.89;46.99;99291.72;105969;1279;95584;-71
2022/07/03 10:55:01;;;;;;;6.80;4.10;;;;;;;27.80;46.86;99288.70;105998;1278;105951;-72
2022/07/03 10:57:38;;;;;;;6.40;4.20;;;;;;;27.78;46.72;99286.90;105861;1278;98258;-73
2022/07/03 11:00:18;;;;;;;5.90;3.50;;;;;;;27.71;46.76;99287.88;105874;1277;96242;-73
2022/07/03 11:02:51;;;;;;;6.00;3.80;;;;;;;27.56;46.56;99284.40;105887;1279;111386;-73
2022/07/03 11:05:37;;;;;;;8.30;4.00;;;;;;;27.53;46.65;99279.76;105873;1279;96313;-73
2022/07/03 11:08:07;;;;;;;9.00;4.10;;;;;;;27.52;46.23;99280.69;105955;1278;107740;-73
2022/07/03 11:10:40;;;;;;;6.10;3.70;;;;;;;27.51;46.33;99273.45;106049;1277;97869;-75
2022/07/03 11:13:15;;;;;;;6.50;4.40;;;;;;;27.53;46.29;99275.27;105978;1277;97049;-73
2022/07/03 11:15:54;;;;;;;5.80;3.50;;;;;;;27.55;46.08;99267.61;105885;1278;111262;-72
2022/07/03 11:18:27;;;;;;;7.10;3.50;;;;;;;27.58;45.88;99266.38;105842;1277;97742;-71
2022/07/03 11:21:10;;;;;;;5.70;3.90;;;;;;;27.62;45.88;99265.39;105804;1278;107508;-74
2022/07/03 11:23:49;;;;;;;;;;;;;;;27.64;45.97;99264.91;105899;1278;97826;-74
2022/07/03 11:26:17;;;;;;;7.60;3.40;;;;;;;27.63;45.65;99261.06;106006;1278;97979;-74
2022/07/03 11:28:45;;;;;;;5.90;3.60;;;;;;;27.59;45.66;99255.44;106028;1278;111501;-69
2022/07/03 11:31:18;;;;;;;5.70;4.10;;;;;;;27.55;45.49;99258.77;106004;1278;98363;-72
2022/07/03 11:33:55;;;;;;;5.80;3.80;;;;;;;27.44;45.48;99259.92;106027;1277;107621;-75
2022/07/03 11:36:31;;;;;;;7.50;3.90;;;;;;;27.34;45.31;99258.22;105925;1277;97975;-69
2022/07/03 11:38:58;;;;;;;8.20;4.00;;;;;;;27.28;45.55;99250.35;105949;1279;95798;-72
2022/07/03 11:41:35;;;;;;;7.30;4.40;;;;;;;27.10;44.99;99249.88;105954;1278;111392;-75
2022/07/03 11:44:09;;;;;;;6.10;3.70;;;;;;;26.94;45.10;99241.45;105914;1279;96423;-75
2022/07/03 11:46:39;;;;;;;10.30;3.60;;;;;;;26.92;45.01;99238.17;105939;1278;107171;-78
2022/07/03 11:49:13;;;;;;;7.00;3.90;;;;;;;26.99;45.08;99234.02;106004;1278;96134;-80
2022/07/03 11:52:04;;;;;;;5.00;3.60;;;;;;;27.07;44.70;99242.29;105975;1277;98017;-78
2022/07/03 11:54:53;;;;;;;8.30;3.80;;;;;;;27.21;44.95;99242.02;105854;1278;111872;-76